sensor_id;sensor_type;location;lat;lon;timestamp;pressure;altitude;pressure_sealevel;temperature;humidity
68891;BME280;55932;48.702;8.884;2023-04-05T00:01:17;96630;;;-2;74
68891;BME280;55932;48.702;8.884;2023-04-05T00:03:48;96630;;;-2;74
68891;BME280;55932;48.702;8.884;2023-04-05T00:08:56;96630;;;-2;74.5
68891;BME280;55932;48.702;8.884;2023-04-05T00:11:27;96620;;;-1.9;74
68891;BME280;55932;48.702;8.884;2023-04-05T00:16:21;96610;;;-1.9;74.5
68891;BME280;55932;48.702;8.884;2023-04-05T00:18:52;96610;;;-1.9;74.5
68891;BME280;55932;48.702;8.884;2023-04-05T00:26:24;96610;;;-1.9;75
68891;BME280;55932;48.702;8.884;2023-04-05T00:31:25;96610;;;-1.9;75
68891;BME280;55932;48.702;8.884;2023-04-05T00:34:09;96600;;;-1.9;75
68891;BME280;55932;48.702;8.884;2023-04-05T00:36:39;96600;;;-1.8;74.5
68891;BME280;55932;48.702;8.884;2023-04-05T00:39:09;96590;;;-1.7;74.5
68891;BME280;55932;48.702;8.884;2023-04-05T00:44:03;96600;;;-1.6;74
68891;BME280;55932;48.702;8.884;2023-04-05T00:46:34;96590;;;-1.6;74
68891;BME280;55932;48.702;8.884;2023-04-05T00:49:11;96590;;;-1.6;74
68891;BME280;55932;48.702;8.884;2023-04-05T00:51:42;96580;;;-1.5;74
68891;BME280;55932;48.702;8.884;2023-04-05T00:59:15;96570;;;-1.5;74
68891;BME280;55932;48.702;8.884;2023-04-05T01:01:45;96580;;;-1.5;74
68891;BME280;55932;48.702;8.884;2023-04-05T01:04:09;96570;;;-1.6;74
68891;BME280;55932;48.702;8.884;2023-04-05T01:06:51;96570;;;-1.6;74
68891;BME280;55932;48.702;8.884;2023-04-05T01:11:42;96570;;;-1.6;74.5
68891;BME280;55932;48.702;8.884;2023-04-05T01:14:13;96560;;;-1.5;74
68891;BME280;55932;48.702;8.884;2023-04-05T01:16:44;96560;;;-1.5;74
68891;BME280;55932;48.702;8.884;2023-04-05T01:19:15;96560;;;-1.6;74
68891;BME280;55932;48.702;8.884;2023-04-05T01:21:54;96560;;;-1.6;74
68891;BME280;55932;48.702;8.884;2023-04-05T01:26:53;96560;;;-1.7;74
68891;BME280;55932;48.702;8.884;2023-04-05T01:29:31;96550;;;-1.7;74
68891;BME280;55932;48.702;8.884;2023-04-05T01:34:24;96550;;;-1.7;74.5
68891;BME280;55932;48.702;8.884;2023-04-05T01:36:53;96550;;;-1.7;74.5
68891;BME280;55932;48.702;8.884;2023-04-05T01:39:23;96540;;;-1.7;74.5
68891;BME280;55932;48.702;8.884;2023-04-05T01:41:57;96540;;;-1.7;74.5
68891;BME280;55932;48.702;8.884;2023-04-05T01:44:24;96540;;;-1.9;75
68891;BME280;55932;48.702;8.884;2023-04-05T01:46:56;96550;;;-1.8;75
68891;BME280;55932;48.702;8.884;2023-04-05T01:49:26;96540;;;-1.9;75
68891;BME280;55932;48.702;8.884;2023-04-05T01:51:56;96540;;;-1.9;75.5
68891;BME280;55932;48.702;8.884;2023-04-05T01:54:28;96530;;;-2;75.5
68891;BME280;55932;48.702;8.884;2023-04-05T01:57:05;96540;;;-2;75.5
68891;BME280;55932;48.702;8.884;2023-04-05T02:02:13;96530;;;-2.1;75.5
68891;BME280;55932;48.702;8.884;2023-04-05T02:04:50;96530;;;-2.1;76
68891;BME280;55932;48.702;8.884;2023-04-05T02:07:13;96520;;;-2.2;76
68891;BME280;55932;48.702;8.884;2023-04-05T02:09:50;96520;;;-2.3;76.5
68891;BME280;55932;48.702;8.884;2023-04-05T02:12:07;96530;;;-2.4;76.5
68891;BME280;55932;48.702;8.884;2023-04-05T02:17:08;96520;;;-2.5;76.5
68891;BME280;55932;48.702;8.884;2023-04-05T02:19:39;96520;;;-2.4;76.5
68891;BME280;55932;48.702;8.884;2023-04-05T02:22:09;96510;;;-2.3;76
68891;BME280;55932;48.702;8.884;2023-04-05T02:24:33;96520;;;-2.3;76
68891;BME280;55932;48.702;8.884;2023-04-05T02:27:05;96520;;;-2.3;76
68891;BME280;55932;48.702;8.884;2023-04-05T02:29:42;96520;;;-2.3;76
68891;BME280;55932;48.702;8.884;2023-04-05T02:32:13;96520;;;-2.4;76
68891;BME280;55932;48.702;8.884;2023-04-05T02:34:37;96520;;;-2.5;76
68891;BME280;55932;48.702;8.884;2023-04-05T02:37:15;96510;;;-2.7;76
68891;BME280;55932;48.702;8.884;2023-04-05T02:44:47;96510;;;-3;76
68891;BME280;55932;48.702;8.884;2023-04-05T02:47:17;96510;;;-3.2;76
68891;BME280;55932;48.702;8.884;2023-04-05T02:49:47;96520;;;-3.3;76.5
68891;BME280;55932;48.702;8.884;2023-04-05T02:54:42;96520;;;-3.3;75.5
68891;BME280;55932;48.702;8.884;2023-04-05T02:57:13;96520;;;-3.3;75.5
68891;BME280;55932;48.702;8.884;2023-04-05T02:59:43;96520;;;-3.4;76
68891;BME280;55932;48.702;8.884;2023-04-05T03:12:23;96510;;;-3.3;76
68891;BME280;55932;48.702;8.884;2023-04-05T03:14:53;96510;;;-3.3;76
68891;BME280;55932;48.702;8.884;2023-04-05T03:17:24;96500;;;-3.3;75.5
68891;BME280;55932;48.702;8.884;2023-04-05T03:19:54;96500;;;-3.2;75.5
68891;BME280;55932;48.702;8.884;2023-04-05T03:22:24;96500;;;-3.2;75.5
68891;BME280;55932;48.702;8.884;2023-04-05T03:25:01;96500;;;-3.2;76
68891;BME280;55932;48.702;8.884;2023-04-05T03:29:48;96500;;;-3.2;76
68891;BME280;55932;48.702;8.884;2023-04-05T03:32:22;96490;;;-3.1;75.5
68891;BME280;55932;48.702;8.884;2023-04-05T03:37:15;96500;;;-3.2;75.5
68891;BME280;55932;48.702;8.884;2023-04-05T03:39:45;96500;;;-3.3;75.5
68891;BME280;55932;48.702;8.884;2023-04-05T03:42:16;96500;;;-3.5;75.5
68891;BME280;55932;48.702;8.884;2023-04-05T03:49:48;96500;;;-3.8;75.5
68891;BME280;55932;48.702;8.884;2023-04-05T03:52:19;96500;;;-3.9;76
68891;BME280;55932;48.702;8.884;2023-04-05T03:54:50;96500;;;-3.9;75.5
68891;BME280;55932;48.702;8.884;2023-04-05T03:57:20;96500;;;-3.8;75
68891;BME280;55932;48.702;8.884;2023-04-05T04:02:28;96490;;;-3.8;75
68891;BME280;55932;48.702;8.884;2023-04-05T04:04:59;96490;;;-3.9;75.5
68891;BME280;55932;48.702;8.884;2023-04-05T04:09:54;96490;;;-4.1;75.5
68891;BME280;55932;48.702;8.884;2023-04-05T04:19:57;96490;;;-4.3;75.5
68891;BME280;55932;48.702;8.884;2023-04-05T04:22:28;96490;;;-4.4;75.5
68891;BME280;55932;48.702;8.884;2023-04-05T04:24:59;96490;;;-4.5;76
68891;BME280;55932;48.702;8.884;2023-04-05T04:27:30;96490;;;-4.4;76
68891;BME280;55932;48.702;8.884;2023-04-05T04:30:14;96490;;;-4.4;75.5
68891;BME280;55932;48.702;8.884;2023-04-05T04:32:38;96500;;;-4.4;75
68891;BME280;55932;48.702;8.884;2023-04-05T04:37:39;96480;;;-4.4;75.5
68891;BME280;55932;48.702;8.884;2023-04-05T04:40:11;96480;;;-4.4;75.5
68891;BME280;55932;48.702;8.884;2023-04-05T04:42:42;96490;;;-4.4;75.5
68891;BME280;55932;48.702;8.884;2023-04-05T04:47:49;96490;;;-4.5;75.5
68891;BME280;55932;48.702;8.884;2023-04-05T04:53:16;96490;;;-4.6;75.5
68891;BME280;55932;48.702;8.884;2023-04-05T04:57:51;96490;;;-4.5;75.5
68891;BME280;55932;48.702;8.884;2023-04-05T05:00:21;96500;;;-4.6;75.5
68891;BME280;55932;48.702;8.884;2023-04-05T05:05:15;96500;;;-4.3;75.5
68891;BME280;55932;48.702;8.884;2023-04-05T05:07:46;96500;;;-4.3;75
68891;BME280;55932;48.702;8.884;2023-04-05T05:10:17;96500;;;-4.2;75.5
68891;BME280;55932;48.702;8.884;2023-04-05T05:12:55;96500;;;-4.2;75.5
68891;BME280;55932;48.702;8.884;2023-04-05T05:15:28;96500;;;-4.1;75.5
68891;BME280;55932;48.702;8.884;2023-04-05T05:20:14;96510;;;-3.9;75.5
68891;BME280;55932;48.702;8.884;2023-04-05T05:22:45;96510;;;-3.8;75.5
68891;BME280;55932;48.702;8.884;2023-04-05T05:25:16;96510;;;-3.7;75.5
68891;BME280;55932;48.702;8.884;2023-04-05T05:27:47;96500;;;-3.7;75.5
68891;BME280;55932;48.702;8.884;2023-04-05T05:30:17;96500;;;-3.6;75.5
68891;BME280;55932;48.702;8.884;2023-04-05T05:32:48;96500;;;-3.7;76
68891;BME280;55932;48.702;8.884;2023-04-05T05:35:19;96500;;;-3.7;75.5
68891;BME280;55932;48.702;8.884;2023-04-05T05:45:22;96500;;;-3.4;76
68891;BME280;55932;48.702;8.884;2023-04-05T05:50:37;96500;;;-2.3;74.5
68891;BME280;55932;48.702;8.884;2023-04-05T05:53:06;96510;;;-1.8;74.5
68891;BME280;55932;48.702;8.884;2023-04-05T05:58:00;96490;;;0.5;71
68891;BME280;55932;48.702;8.884;2023-04-05T06:00:34;96490;;;2.1;67.5
68891;BME280;55932;48.702;8.884;2023-04-05T06:03:03;96480;;;3.6;64.5
68891;BME280;55932;48.702;8.884;2023-04-05T06:05:33;96480;;;4.1;64.5
68891;BME280;55932;48.702;8.884;2023-04-05T06:08:10;96480;;;5;64.5
68891;BME280;55932;48.702;8.884;2023-04-05T06:13:21;96490;;;4.2;68.5
68891;BME280;55932;48.702;8.884;2023-04-05T06:15:42;96480;;;5.4;66
68891;BME280;55932;48.702;8.884;2023-04-05T06:20:54;96480;;;5.6;64.5
68891;BME280;55932;48.702;8.884;2023-04-05T06:23:07;96480;;;5.1;66.5
68891;BME280;55932;48.702;8.884;2023-04-05T06:25:38;96480;;;5.9;64
68891;BME280;55932;48.702;8.884;2023-04-05T06:28:02;96480;;;5.5;65
68891;BME280;55932;48.702;8.884;2023-04-05T06:38:05;96480;;;8.1;60
68891;BME280;55932;48.702;8.884;2023-04-05T06:40:35;96480;;;7.7;61.5
68891;BME280;55932;48.702;8.884;2023-04-05T06:43:06;96470;;;8.2;60
68891;BME280;55932;48.702;8.884;2023-04-05T06:45:37;96480;;;7.6;61.5
68891;BME280;55932;48.702;8.884;2023-04-05T06:48:08;96480;;;7;63
68891;BME280;55932;48.702;8.884;2023-04-05T06:53:15;96480;;;8.4;62
68891;BME280;55932;48.702;8.884;2023-04-05T06:55:48;96480;;;9.3;61
68891;BME280;55932;48.702;8.884;2023-04-05T06:58:17;96480;;;10.8;58.5
68891;BME280;55932;48.702;8.884;2023-04-05T07:00:55;96480;;;11.3;57
68891;BME280;55932;48.702;8.884;2023-04-05T07:03:26;96470;;;12.8;55
68891;BME280;55932;48.702;8.884;2023-04-05T07:08:14;96470;;;13.6;51.5
68891;BME280;55932;48.702;8.884;2023-04-05T07:10:45;96470;;;13.8;50
68891;BME280;55932;48.702;8.884;2023-04-05T07:13:16;96480;;;13.7;50
68891;BME280;55932;48.702;8.884;2023-04-05T07:15:46;96480;;;14.6;49.5
68891;BME280;55932;48.702;8.884;2023-04-05T07:18:17;96470;;;14.7;51
68891;BME280;55932;48.702;8.884;2023-04-05T07:20:47;96460;;;15;50.5
68891;BME280;55932;48.702;8.884;2023-04-05T07:23:18;96470;;;13.5;54.5
68891;BME280;55932;48.702;8.884;2023-04-05T07:30:51;96470;;;13.6;54
68891;BME280;55932;48.702;8.884;2023-04-05T07:35:58;96470;;;14.1;54.5
68891;BME280;55932;48.702;8.884;2023-04-05T07:38:29;96470;;;15;53.5
68891;BME280;55932;48.702;8.884;2023-04-05T07:41:00;96470;;;14.9;53.5
68891;BME280;55932;48.702;8.884;2023-04-05T07:43:24;96470;;;14.8;53.5
68891;BME280;55932;48.702;8.884;2023-04-05T07:46:02;96470;;;14.5;55
68891;BME280;55932;48.702;8.884;2023-04-05T07:48:25;96470;;;15.2;54
68891;BME280;55932;48.702;8.884;2023-04-05T07:51:01;96480;;;13.1;57
68891;BME280;55932;48.702;8.884;2023-04-05T07:53:27;96480;;;11.9;60.5
68891;BME280;55932;48.702;8.884;2023-04-05T07:56:01;96480;;;12.3;59
68891;BME280;55932;48.702;8.884;2023-04-05T07:58:29;96480;;;12.9;57.5
68891;BME280;55932;48.702;8.884;2023-04-05T08:03:30;96480;;;14.3;55.5
68891;BME280;55932;48.702;8.884;2023-04-05T08:06:08;96490;;;13.1;57.5
68891;BME280;55932;48.702;8.884;2023-04-05T08:08:32;96490;;;13.2;58
68891;BME280;55932;48.702;8.884;2023-04-05T08:11:03;96490;;;13.3;57
68891;BME280;55932;48.702;8.884;2023-04-05T08:13:34;96480;;;13.5;57
68891;BME280;55932;48.702;8.884;2023-04-05T08:16:05;96490;;;13;58
68891;BME280;55932;48.702;8.884;2023-04-05T08:18:35;96490;;;13.1;57.5
68891;BME280;55932;48.702;8.884;2023-04-05T08:21:06;96490;;;13.4;57
68891;BME280;55932;48.702;8.884;2023-04-05T08:23:36;96490;;;14.3;56.5
68891;BME280;55932;48.702;8.884;2023-04-05T08:26:07;96480;;;15.3;56
68891;BME280;55932;48.702;8.884;2023-04-05T08:33:40;96480;;;15.4;56
68891;BME280;55932;48.702;8.884;2023-04-05T08:38:48;96480;;;17;53.5
68891;BME280;55932;48.702;8.884;2023-04-05T08:43:56;96480;;;16.2;56
68891;BME280;55932;48.702;8.884;2023-04-05T08:46:19;96480;;;16.8;55
68891;BME280;55932;48.702;8.884;2023-04-05T08:48:50;96480;;;16.6;55
68891;BME280;55932;48.702;8.884;2023-04-05T08:53:45;96480;;;16.4;54.5
68891;BME280;55932;48.702;8.884;2023-04-05T09:01:17;96480;;;17.1;54
68891;BME280;55932;48.702;8.884;2023-04-05T09:03:48;96470;;;17.2;55
68891;BME280;55932;48.702;8.884;2023-04-05T09:06:19;96480;;;16.7;56.5
68891;BME280;55932;48.702;8.884;2023-04-05T09:08:50;96470;;;15.7;59.5
68891;BME280;55932;48.702;8.884;2023-04-05T09:11:21;96480;;;16.1;57.5
68891;BME280;55932;48.702;8.884;2023-04-05T09:16:28;96480;;;16.5;55.5
68891;BME280;55932;48.702;8.884;2023-04-05T09:18:59;96480;;;16;59
68891;BME280;55932;48.702;8.884;2023-04-05T09:23:54;96490;;;15.6;61
68891;BME280;55932;48.702;8.884;2023-04-05T09:26:25;96480;;;15.5;61
68891;BME280;55932;48.702;8.884;2023-04-05T09:36:29;96480;;;16;62
68891;BME280;55932;48.702;8.884;2023-04-05T09:39:06;96470;;;17.4;59.5
68891;BME280;55932;48.702;8.884;2023-04-05T09:44:04;96470;;;15.1;61.5
68891;BME280;55932;48.702;8.884;2023-04-05T09:49:15;96480;;;14.7;63
68891;BME280;55932;48.702;8.884;2023-04-05T09:51:45;96470;;;16.5;60
68891;BME280;55932;48.702;8.884;2023-04-05T09:56:39;96470;;;15;62.5
68891;BME280;55932;48.702;8.884;2023-04-05T09:59:10;96470;;;15.3;61.5
68891;BME280;55932;48.702;8.884;2023-04-05T10:01:42;96480;;;15.2;62.5
68891;BME280;55932;48.702;8.884;2023-04-05T10:04:12;96470;;;15.4;63.5
68891;BME280;55932;48.702;8.884;2023-04-05T10:06:49;96470;;;14.7;64
68891;BME280;55932;48.702;8.884;2023-04-05T10:09:19;96470;;;15.1;64.5
68891;BME280;55932;48.702;8.884;2023-04-05T10:11:56;96460;;;16.3;64
68891;BME280;55932;48.702;8.884;2023-04-05T10:16:47;96450;;;17.7;58.5
68891;BME280;55932;48.702;8.884;2023-04-05T10:19:15;96450;;;16.9;61.5
68891;BME280;55932;48.702;8.884;2023-04-05T10:24:15;96450;;;15.8;64
68891;BME280;55932;48.702;8.884;2023-04-05T10:26:51;96450;;;15.1;64.5
68891;BME280;55932;48.702;8.884;2023-04-05T10:29:13;96450;;;14.9;64
68891;BME280;55932;48.702;8.884;2023-04-05T10:36:44;96450;;;15;65
68891;BME280;55932;48.702;8.884;2023-04-05T10:39:16;96440;;;15.8;65.5
68891;BME280;55932;48.702;8.884;2023-04-05T10:41:47;96440;;;16.5;65.5
68891;BME280;55932;48.702;8.884;2023-04-05T10:44:16;96450;;;15.9;67
68891;BME280;55932;48.702;8.884;2023-04-05T10:46:55;96440;;;16;66
68891;BME280;55932;48.702;8.884;2023-04-05T10:51:55;96440;;;15.1;68
68891;BME280;55932;48.702;8.884;2023-04-05T10:56:56;96440;;;15.4;68
68891;BME280;55932;48.702;8.884;2023-04-05T10:59:27;96440;;;15.8;69
68891;BME280;55932;48.702;8.884;2023-04-05T11:01:58;96440;;;15.6;68
68891;BME280;55932;48.702;8.884;2023-04-05T11:04:35;96430;;;16;66
68891;BME280;55932;48.702;8.884;2023-04-05T11:07:13;96440;;;15.4;68
68891;BME280;55932;48.702;8.884;2023-04-05T11:10:45;96430;;;15.1;68.5
68891;BME280;55932;48.702;8.884;2023-04-05T11:14:36;96430;;;16.1;67.5
68891;BME280;55932;48.702;8.884;2023-04-05T11:17:01;96430;;;15.8;68.5
68891;BME280;55932;48.702;8.884;2023-04-05T11:22:02;96430;;;14.4;67.5
68891;BME280;55932;48.702;8.884;2023-04-05T11:24:27;96430;;;14.6;68
68891;BME280;55932;48.702;8.884;2023-04-05T11:26:57;96420;;;14.8;67.5
68891;BME280;55932;48.702;8.884;2023-04-05T11:31:59;96420;;;15;67
68891;BME280;55932;48.702;8.884;2023-04-05T11:34:29;96420;;;14.7;68.5
68891;BME280;55932;48.702;8.884;2023-04-05T11:39:31;96410;;;14.5;68.5
68891;BME280;55932;48.702;8.884;2023-04-05T11:42:28;96420;;;14.4;69.5
68891;BME280;55932;48.702;8.884;2023-04-05T11:44:46;96410;;;15.4;68.5
68891;BME280;55932;48.702;8.884;2023-04-05T11:47:16;96410;;;15.6;68.5
68891;BME280;55932;48.702;8.884;2023-04-05T11:52:11;96400;;;15.2;68
68891;BME280;55932;48.702;8.884;2023-04-05T11:54:41;96400;;;15;69
68891;BME280;55932;48.702;8.884;2023-04-05T11:57:12;96400;;;14.9;70
68891;BME280;55932;48.702;8.884;2023-04-05T11:59:43;96400;;;15.2;71
68891;BME280;55932;48.702;8.884;2023-04-05T12:02:20;96400;;;15.2;71
68891;BME280;55932;48.702;8.884;2023-04-05T12:04:52;96390;;;15.2;70.5
68891;BME280;55932;48.702;8.884;2023-04-05T12:07:28;96390;;;14.6;70
68891;BME280;55932;48.702;8.884;2023-04-05T12:10:02;96390;;;14.2;69.5
68891;BME280;55932;48.702;8.884;2023-04-05T12:12:15;96390;;;14.3;69
68891;BME280;55932;48.702;8.884;2023-04-05T12:14:46;96390;;;14.9;69.5
68891;BME280;55932;48.702;8.884;2023-04-05T12:17:10;96380;;;15.5;68.5
68891;BME280;55932;48.702;8.884;2023-04-05T12:19:41;96390;;;14.7;67
68891;BME280;55932;48.702;8.884;2023-04-05T12:22:12;96390;;;14.7;68.5
68891;BME280;55932;48.702;8.884;2023-04-05T12:24:42;96380;;;14.4;69.5
68891;BME280;55932;48.702;8.884;2023-04-05T12:32:15;96370;;;15.9;68.5
68891;BME280;55932;48.702;8.884;2023-04-05T12:34:46;96380;;;16.1;68
68891;BME280;55932;48.702;8.884;2023-04-05T12:37:17;96380;;;16.3;68.5
68891;BME280;55932;48.702;8.884;2023-04-05T12:42:24;96370;;;15.7;69
68891;BME280;55932;48.702;8.884;2023-04-05T12:45:03;96370;;;15.5;68
68891;BME280;55932;48.702;8.884;2023-04-05T12:49:50;96370;;;15.8;69.5
68891;BME280;55932;48.702;8.884;2023-04-05T12:52:20;96370;;;16;68.5
68891;BME280;55932;48.702;8.884;2023-04-05T12:54:52;96350;;;16.8;68
68891;BME280;55932;48.702;8.884;2023-04-05T13:02:23;96360;;;15.7;67
68891;BME280;55932;48.702;8.884;2023-04-05T13:04:54;96350;;;15.1;67.5
68891;BME280;55932;48.702;8.884;2023-04-05T13:07:32;96350;;;15.1;69
68891;BME280;55932;48.702;8.884;2023-04-05T13:10:03;96350;;;14.9;68
68891;BME280;55932;48.702;8.884;2023-04-05T13:12:34;96350;;;15.1;68
68891;BME280;55932;48.702;8.884;2023-04-05T13:17:28;96350;;;14.9;67.5
68891;BME280;55932;48.702;8.884;2023-04-05T13:19:59;96350;;;15.5;69
68891;BME280;55932;48.702;8.884;2023-04-05T13:22:29;96340;;;16;69.5
68891;BME280;55932;48.702;8.884;2023-04-05T13:25:00;96340;;;16.1;68
68891;BME280;55932;48.702;8.884;2023-04-05T13:32:33;96320;;;16.4;67
68891;BME280;55932;48.702;8.884;2023-04-05T13:37:35;96330;;;15.7;67.5
68891;BME280;55932;48.702;8.884;2023-04-05T13:40:05;96320;;;14.8;69.5
68891;BME280;55932;48.702;8.884;2023-04-05T13:42:56;96320;;;14.4;72
68891;BME280;55932;48.702;8.884;2023-04-05T13:45:19;96320;;;14.7;71
68891;BME280;55932;48.702;8.884;2023-04-05T13:47:49;96310;;;14.8;69.5
68891;BME280;55932;48.702;8.884;2023-04-05T13:52:43;96310;;;15.7;70.5
68891;BME280;55932;48.702;8.884;2023-04-05T13:55:21;96310;;;15.1;71
68891;BME280;55932;48.702;8.884;2023-04-05T13:57:46;96310;;;15.4;72
68891;BME280;55932;48.702;8.884;2023-04-05T14:00:16;96300;;;15.8;71
68891;BME280;55932;48.702;8.884;2023-04-05T14:02:53;96300;;;15.9;71
68891;BME280;55932;48.702;8.884;2023-04-05T14:05:24;96300;;;15.7;71
68891;BME280;55932;48.702;8.884;2023-04-05T14:07:54;96290;;;16.1;70
68891;BME280;55932;48.702;8.884;2023-04-05T14:10:24;96290;;;16.1;69.5
68891;BME280;55932;48.702;8.884;2023-04-05T14:12:55;96290;;;16.2;68.5
68891;BME280;55932;48.702;8.884;2023-04-05T14:17:50;96280;;;16.5;67
68891;BME280;55932;48.702;8.884;2023-04-05T14:22:53;96290;;;15.6;66.5
68891;BME280;55932;48.702;8.884;2023-04-05T14:30:31;96290;;;15.4;66
68891;BME280;55932;48.702;8.884;2023-04-05T14:33:01;96280;;;15;68
68891;BME280;55932;48.702;8.884;2023-04-05T14:35:32;96280;;;15.6;67
68891;BME280;55932;48.702;8.884;2023-04-05T14:38:01;96280;;;15.4;66.5
68891;BME280;55932;48.702;8.884;2023-04-05T14:40:25;96280;;;14.9;67
68891;BME280;55932;48.702;8.884;2023-04-05T14:43:03;96280;;;14.5;66.5
68891;BME280;55932;48.702;8.884;2023-04-05T14:45:34;96280;;;13.8;66.5
68891;BME280;55932;48.702;8.884;2023-04-05T14:50:29;96290;;;13.1;66
68891;BME280;55932;48.702;8.884;2023-04-05T14:53:00;96280;;;12.4;66
68891;BME280;55932;48.702;8.884;2023-04-05T14:55:31;96280;;;11.9;67
68891;BME280;55932;48.702;8.884;2023-04-05T14:58:02;96280;;;12;67.5
68891;BME280;55932;48.702;8.884;2023-04-05T15:00:33;96270;;;12.1;67.5
68891;BME280;55932;48.702;8.884;2023-04-05T15:05:28;96270;;;12.7;68.5
68891;BME280;55932;48.702;8.884;2023-04-05T15:07:58;96280;;;12.8;67.5
68891;BME280;55932;48.702;8.884;2023-04-05T15:13:00;96270;;;12.5;69
68891;BME280;55932;48.702;8.884;2023-04-05T15:15:34;96270;;;12;70.5
68891;BME280;55932;48.702;8.884;2023-04-05T15:18:02;96270;;;12.6;70
68891;BME280;55932;48.702;8.884;2023-04-05T15:23:09;96270;;;12.2;72
68891;BME280;55932;48.702;8.884;2023-04-05T15:25:40;96270;;;12.1;71.5
68891;BME280;55932;48.702;8.884;2023-04-05T15:28:11;96270;;;12.3;72
68891;BME280;55932;48.702;8.884;2023-04-05T15:30:35;96270;;;12.3;71.5
68891;BME280;55932;48.702;8.884;2023-04-05T15:33:06;96260;;;12;71
68891;BME280;55932;48.702;8.884;2023-04-05T15:45:40;96260;;;10.7;69.5
68891;BME280;55932;48.702;8.884;2023-04-05T15:48:10;96260;;;10.8;70
68891;BME280;55932;48.702;8.884;2023-04-05T15:50:41;96260;;;11;71
68891;BME280;55932;48.702;8.884;2023-04-05T15:53:12;96260;;;11.1;70.5
68891;BME280;55932;48.702;8.884;2023-04-05T15:58:19;96270;;;10.2;70.5
68891;BME280;55932;48.702;8.884;2023-04-05T16:00:51;96260;;;10;71
68891;BME280;55932;48.702;8.884;2023-04-05T16:03:21;96260;;;10;71
68891;BME280;55932;48.702;8.884;2023-04-05T16:05:52;96270;;;10.2;71.5
68891;BME280;55932;48.702;8.884;2023-04-05T16:08:34;96270;;;10.5;71.5
68891;BME280;55932;48.702;8.884;2023-04-05T16:13:26;96260;;;10.5;72
68891;BME280;55932;48.702;8.884;2023-04-05T16:15:57;96270;;;10.4;71
68891;BME280;55932;48.702;8.884;2023-04-05T16:18:27;96260;;;10.5;71
68891;BME280;55932;48.702;8.884;2023-04-05T16:20:58;96260;;;10.4;71.5
68891;BME280;55932;48.702;8.884;2023-04-05T16:23:29;96270;;;10.4;71.5
68891;BME280;55932;48.702;8.884;2023-04-05T16:28:30;96260;;;10.4;71
68891;BME280;55932;48.702;8.884;2023-04-05T16:31:01;96260;;;10.5;71
68891;BME280;55932;48.702;8.884;2023-04-05T16:33:32;96270;;;10.4;71
68891;BME280;55932;48.702;8.884;2023-04-05T16:36:10;96270;;;10.4;72
68891;BME280;55932;48.702;8.884;2023-04-05T16:38:41;96270;;;10.3;72
68891;BME280;55932;48.702;8.884;2023-04-05T16:43:36;96270;;;10;70.5
68891;BME280;55932;48.702;8.884;2023-04-05T16:46:07;96280;;;9.7;70
68891;BME280;55932;48.702;8.884;2023-04-05T16:51:09;96280;;;9.1;70
68891;BME280;55932;48.702;8.884;2023-04-05T16:53:47;96280;;;8.4;70
68891;BME280;55932;48.702;8.884;2023-04-05T16:56:11;96290;;;7.9;70.5
68891;BME280;55932;48.702;8.884;2023-04-05T16:58:43;96280;;;7.4;71
68891;BME280;55932;48.702;8.884;2023-04-05T17:01:18;96290;;;7.1;71
68891;BME280;55932;48.702;8.884;2023-04-05T17:03:49;96290;;;6.9;71.5
68891;BME280;55932;48.702;8.884;2023-04-05T17:08:44;96290;;;6.7;71.5
68891;BME280;55932;48.702;8.884;2023-04-05T17:13:52;96300;;;6.6;71.5
68891;BME280;55932;48.702;8.884;2023-04-05T17:16:22;96300;;;6.3;72
68891;BME280;55932;48.702;8.884;2023-04-05T17:18:53;96300;;;6.4;72
68891;BME280;55932;48.702;8.884;2023-04-05T17:21:17;96300;;;6.4;72
68891;BME280;55932;48.702;8.884;2023-04-05T17:23:48;96300;;;6.4;72
68891;BME280;55932;48.702;8.884;2023-04-05T17:26:25;96300;;;6.5;71.5
68891;BME280;55932;48.702;8.884;2023-04-05T17:28:57;96310;;;6.6;71.5
68891;BME280;55932;48.702;8.884;2023-04-05T17:33:54;96310;;;6.5;71.5
68891;BME280;55932;48.702;8.884;2023-04-05T17:36:22;96310;;;6.3;72
68891;BME280;55932;48.702;8.884;2023-04-05T17:41:31;96310;;;5.8;72
68891;BME280;55932;48.702;8.884;2023-04-05T17:44:00;96310;;;5.5;72
68891;BME280;55932;48.702;8.884;2023-04-05T17:46:24;96320;;;5.2;72.5
68891;BME280;55932;48.702;8.884;2023-04-05T17:49:09;96320;;;5.1;72.5
68891;BME280;55932;48.702;8.884;2023-04-05T17:51:26;96310;;;5;72
68891;BME280;55932;48.702;8.884;2023-04-05T17:54:04;96320;;;4.8;72.5
68891;BME280;55932;48.702;8.884;2023-04-05T17:56:35;96320;;;4.7;72
68891;BME280;55932;48.702;8.884;2023-04-05T18:01:30;96320;;;4.4;72.5
68891;BME280;55932;48.702;8.884;2023-04-05T18:04:01;96310;;;4.2;72.5
68891;BME280;55932;48.702;8.884;2023-04-05T18:06:32;96310;;;3.8;73
68891;BME280;55932;48.702;8.884;2023-04-05T18:09:03;96310;;;3.6;73
68891;BME280;55932;48.702;8.884;2023-04-05T18:11:34;96320;;;3.4;73
68891;BME280;55932;48.702;8.884;2023-04-05T18:16:35;96330;;;3.1;73
68891;BME280;55932;48.702;8.884;2023-04-05T18:19:08;96330;;;2.9;73
68891;BME280;55932;48.702;8.884;2023-04-05T18:21:41;96330;;;2.8;73
68891;BME280;55932;48.702;8.884;2023-04-05T18:24:01;96330;;;2.7;72.5
68891;BME280;55932;48.702;8.884;2023-04-05T18:31:34;96340;;;2.5;72.5
68891;BME280;55932;48.702;8.884;2023-04-05T18:34:04;96340;;;2.4;72.5
68891;BME280;55932;48.702;8.884;2023-04-05T18:36:35;96340;;;2.3;72.5
68891;BME280;55932;48.702;8.884;2023-04-05T18:39:06;96340;;;2.2;72.5
68891;BME280;55932;48.702;8.884;2023-04-05T18:44:14;96350;;;2;72
68891;BME280;55932;48.702;8.884;2023-04-05T18:46:45;96340;;;1.9;72
68891;BME280;55932;48.702;8.884;2023-04-05T18:49:15;96350;;;1.9;72
68891;BME280;55932;48.702;8.884;2023-04-05T18:52:03;96360;;;1.9;72
68891;BME280;55932;48.702;8.884;2023-04-05T18:54:29;96360;;;1.8;72
68891;BME280;55932;48.702;8.884;2023-04-05T18:56:55;96360;;;1.7;72
68891;BME280;55932;48.702;8.884;2023-04-05T18:59:28;96360;;;1.6;72
68891;BME280;55932;48.702;8.884;2023-04-05T19:01:50;96370;;;1.5;72
68891;BME280;55932;48.702;8.884;2023-04-05T19:04:30;96370;;;1.5;72
68891;BME280;55932;48.702;8.884;2023-04-05T19:06:52;96370;;;1.5;72
68891;BME280;55932;48.702;8.884;2023-04-05T19:09:24;96370;;;1.4;72
68891;BME280;55932;48.702;8.884;2023-04-05T19:11:54;96370;;;1.3;72.5
68891;BME280;55932;48.702;8.884;2023-04-05T19:14:18;96380;;;1.4;72.5
68891;BME280;55932;48.702;8.884;2023-04-05T19:26:50;96370;;;1;72
68891;BME280;55932;48.702;8.884;2023-04-05T19:29:21;96370;;;1;72